sensor_id;sensor_type;location;lat;lon;timestamp;P1;durP1;ratioP1;P2;durP2;ratioP2
37445;SDS011;23307;51.136;14.942;2022-07-23T00:02:19;4.95;;;4.45;;
37445;SDS011;23307;51.136;14.942;2022-07-23T00:04:45;6.18;;;4.70;;
37445;SDS011;23307;51.136;14.942;2022-07-23T00:07:10;5.47;;;4.80;;
37445;SDS011;23307;51.136;14.942;2022-07-23T00:09:36;5.88;;;4.90;;
37445;SDS011;23307;51.136;14.942;2022-07-23T00:12:01;4.68;;;4.28;;
37445;SDS011;23307;51.136;14.942;2022-07-23T00:14:27;5.95;;;5.07;;
37445;SDS011;23307;51.136;14.942;2022-07-23T00:16:52;4.30;;;3.90;;
37445;SDS011;23307;51.136;14.942;2022-07-23T00:19:18;5.90;;;4.90;;
37445;SDS011;23307;51.136;14.942;2022-07-23T00:21:43;5.47;;;4.97;;
37445;SDS011;23307;51.136;14.942;2022-07-23T00:24:09;5.13;;;4.50;;
37445;SDS011;23307;51.136;14.942;2022-07-23T00:26:34;4.70;;;4.30;;
37445;SDS011;23307;51.136;14.942;2022-07-23T00:29:00;4.20;;;3.90;;
37445;SDS011;23307;51.136;14.942;2022-07-23T00:31:25;4.75;;;4.35;;
37445;SDS011;23307;51.136;14.942;2022-07-23T00:33:52;4.90;;;4.50;;
37445;SDS011;23307;51.136;14.942;2022-07-23T00:36:21;5.28;;;4.40;;
37445;SDS011;23307;51.136;14.942;2022-07-23T00:38:48;5.43;;;4.22;;
37445;SDS011;23307;51.136;14.942;2022-07-23T00:41:14;4.82;;;4.10;;
37445;SDS011;23307;51.136;14.942;2022-07-23T00:43:39;4.60;;;4.20;;
37445;SDS011;23307;51.136;14.942;2022-07-23T00:46:05;4.80;;;4.40;;
37445;SDS011;23307;51.136;14.942;2022-07-23T00:48:30;5.70;;;4.25;;
37445;SDS011;23307;51.136;14.942;2022-07-23T00:50:56;5.00;;;4.60;;
37445;SDS011;23307;51.136;14.942;2022-07-23T00:53:22;5.88;;;4.57;;
37445;SDS011;23307;51.136;14.942;2022-07-23T00:55:48;4.93;;;4.53;;
37445;SDS011;23307;51.136;14.942;2022-07-23T00:58:14;4.70;;;4.30;;
37445;SDS011;23307;51.136;14.942;2022-07-23T01:00:41;5.05;;;4.55;;
37445;SDS011;23307;51.136;14.942;2022-07-23T01:03:07;5.80;;;4.60;;
37445;SDS011;23307;51.136;14.942;2022-07-23T01:05:32;5.18;;;4.78;;
37445;SDS011;23307;51.136;14.942;2022-07-23T01:07:58;5.97;;;4.70;;
37445;SDS011;23307;51.136;14.942;2022-07-23T01:10:24;5.53;;;5.03;;
37445;SDS011;23307;51.136;14.942;2022-07-23T01:12:56;5.85;;;5.35;;
37445;SDS011;23307;51.136;14.942;2022-07-23T01:15:23;6.53;;;5.47;;
37445;SDS011;23307;51.136;14.942;2022-07-23T01:17:49;5.38;;;4.85;;
37445;SDS011;23307;51.136;14.942;2022-07-23T01:20:15;7.43;;;5.65;;
37445;SDS011;23307;51.136;14.942;2022-07-23T01:22:40;8.45;;;5.15;;
37445;SDS011;23307;51.136;14.942;2022-07-23T01:25:06;5.55;;;5.05;;
37445;SDS011;23307;51.136;14.942;2022-07-23T01:27:32;9.98;;;5.00;;
37445;SDS011;23307;51.136;14.942;2022-07-23T01:29:59;5.38;;;4.88;;
37445;SDS011;23307;51.136;14.942;2022-07-23T01:32:25;6.15;;;5.40;;
37445;SDS011;23307;51.136;14.942;2022-07-23T01:34:50;6.53;;;5.97;;
37445;SDS011;23307;51.136;14.942;2022-07-23T01:37:16;5.53;;;5.00;;
37445;SDS011;23307;51.136;14.942;2022-07-23T01:39:41;5.53;;;5.03;;
37445;SDS011;23307;51.136;14.942;2022-07-23T01:42:07;5.53;;;5.05;;
37445;SDS011;23307;51.136;14.942;2022-07-23T01:44:32;6.57;;;5.63;;
37445;SDS011;23307;51.136;14.942;2022-07-23T01:46:58;5.70;;;5.20;;
37445;SDS011;23307;51.136;14.942;2022-07-23T01:49:23;7.05;;;6.05;;
37445;SDS011;23307;51.136;14.942;2022-07-23T01:51:49;8.00;;;7.10;;
37445;SDS011;23307;51.136;14.942;2022-07-23T01:54:30;9.70;;;8.07;;
37445;SDS011;23307;51.136;14.942;2022-07-23T01:56:58;7.82;;;7.15;;
37445;SDS011;23307;51.136;14.942;2022-07-23T01:59:24;8.15;;;7.35;;
37445;SDS011;23307;51.136;14.942;2022-07-23T02:01:50;9.50;;;7.97;;
37445;SDS011;23307;51.136;14.942;2022-07-23T02:04:17;8.82;;;8.00;;
37445;SDS011;23307;51.136;14.942;2022-07-23T02:06:43;9.13;;;8.32;;
37445;SDS011;23307;51.136;14.942;2022-07-23T02:09:09;9.23;;;8.13;;
37445;SDS011;23307;51.136;14.942;2022-07-23T02:11:34;9.75;;;8.18;;
37445;SDS011;23307;51.136;14.942;2022-07-23T02:14:00;10.40;;;8.23;;
37445;SDS011;23307;51.136;14.942;2022-07-23T02:16:25;8.85;;;7.93;;
37445;SDS011;23307;51.136;14.942;2022-07-23T02:18:51;8.77;;;8.07;;
37445;SDS011;23307;51.136;14.942;2022-07-23T02:21:16;8.77;;;7.90;;
37445;SDS011;23307;51.136;14.942;2022-07-23T02:23:42;8.65;;;7.75;;
37445;SDS011;23307;51.136;14.942;2022-07-23T02:26:07;8.13;;;7.30;;
37445;SDS011;23307;51.136;14.942;2022-07-23T02:28:33;9.07;;;8.27;;
37445;SDS011;23307;51.136;14.942;2022-07-23T02:30:58;8.70;;;7.90;;
37445;SDS011;23307;51.136;14.942;2022-07-23T02:33:24;8.45;;;7.65;;
37445;SDS011;23307;51.136;14.942;2022-07-23T02:35:50;8.35;;;7.55;;
37445;SDS011;23307;51.136;14.942;2022-07-23T02:38:15;7.97;;;7.15;;
37445;SDS011;23307;51.136;14.942;2022-07-23T02:40:41;7.90;;;7.20;;
37445;SDS011;23307;51.136;14.942;2022-07-23T02:43:06;8.10;;;7.30;;
37445;SDS011;23307;51.136;14.942;2022-07-23T02:45:32;7.65;;;7.03;;
37445;SDS011;23307;51.136;14.942;2022-07-23T02:47:57;7.72;;;7.05;;
37445;SDS011;23307;51.136;14.942;2022-07-23T02:50:23;7.85;;;7.13;;
37445;SDS011;23307;51.136;14.942;2022-07-23T02:52:48;7.45;;;6.75;;
37445;SDS011;23307;51.136;14.942;2022-07-23T02:55:14;7.68;;;6.97;;
37445;SDS011;23307;51.136;14.942;2022-07-23T02:57:40;8.20;;;6.93;;
37445;SDS011;23307;51.136;14.942;2022-07-23T03:00:05;7.32;;;6.72;;
37445;SDS011;23307;51.136;14.942;2022-07-23T03:02:31;8.98;;;7.45;;
37445;SDS011;23307;51.136;14.942;2022-07-23T03:04:57;7.40;;;6.70;;
37445;SDS011;23307;51.136;14.942;2022-07-23T03:07:22;7.65;;;7.05;;
37445;SDS011;23307;51.136;14.942;2022-07-23T03:09:48;8.50;;;7.47;;
37445;SDS011;23307;51.136;14.942;2022-07-23T03:12:14;8.32;;;7.63;;
37445;SDS011;23307;51.136;14.942;2022-07-23T03:14:39;9.20;;;8.30;;
37445;SDS011;23307;51.136;14.942;2022-07-23T03:17:05;8.48;;;7.68;;
37445;SDS011;23307;51.136;14.942;2022-07-23T03:19:31;9.20;;;8.40;;
37445;SDS011;23307;51.136;14.942;2022-07-23T03:21:56;8.43;;;7.70;;
37445;SDS011;23307;51.136;14.942;2022-07-23T03:24:22;9.48;;;8.32;;
37445;SDS011;23307;51.136;14.942;2022-07-23T03:26:48;9.27;;;8.48;;
37445;SDS011;23307;51.136;14.942;2022-07-23T03:29:14;9.90;;;9.05;;
37445;SDS011;23307;51.136;14.942;2022-07-23T03:31:40;9.18;;;8.27;;
37445;SDS011;23307;51.136;14.942;2022-07-23T03:34:05;10.30;;;9.27;;
37445;SDS011;23307;51.136;14.942;2022-07-23T03:36:31;9.20;;;8.30;;
37445;SDS011;23307;51.136;14.942;2022-07-23T03:38:56;8.50;;;7.70;;
37445;SDS011;23307;51.136;14.942;2022-07-23T03:41:22;9.90;;;8.90;;
37445;SDS011;23307;51.136;14.942;2022-07-23T03:43:47;9.68;;;8.85;;
37445;SDS011;23307;51.136;14.942;2022-07-23T03:46:13;8.90;;;8.10;;
37445;SDS011;23307;51.136;14.942;2022-07-23T03:48:39;9.13;;;8.07;;
37445;SDS011;23307;51.136;14.942;2022-07-23T03:51:04;9.32;;;8.52;;
37445;SDS011;23307;51.136;14.942;2022-07-23T03:53:30;9.15;;;8.35;;
37445;SDS011;23307;51.136;14.942;2022-07-23T03:55:56;9.20;;;8.30;;
37445;SDS011;23307;51.136;14.942;2022-07-23T03:58:21;9.07;;;8.38;;
37445;SDS011;23307;51.136;14.942;2022-07-23T04:00:47;13.00;;;8.73;;
37445;SDS011;23307;51.136;14.942;2022-07-23T04:03:12;8.82;;;8.02;;
37445;SDS011;23307;51.136;14.942;2022-07-23T04:05:38;9.05;;;8.15;;
37445;SDS011;23307;51.136;14.942;2022-07-23T04:08:03;8.77;;;7.97;;
37445;SDS011;23307;51.136;14.942;2022-07-23T04:10:29;8.65;;;7.75;;
37445;SDS011;23307;51.136;14.942;2022-07-23T04:12:54;8.60;;;7.88;;
37445;SDS011;23307;51.136;14.942;2022-07-23T04:15:20;8.80;;;7.97;;
37445;SDS011;23307;51.136;14.942;2022-07-23T04:17:45;7.90;;;7.20;;
37445;SDS011;23307;51.136;14.942;2022-07-23T04:20:11;7.32;;;6.72;;
37445;SDS011;23307;51.136;14.942;2022-07-23T04:22:38;8.98;;;8.07;;
37445;SDS011;23307;51.136;14.942;2022-07-23T04:25:04;8.80;;;7.75;;
37445;SDS011;23307;51.136;14.942;2022-07-23T04:27:29;8.93;;;7.35;;
37445;SDS011;23307;51.136;14.942;2022-07-23T04:29:58;8.40;;;7.68;;
37445;SDS011;23307;51.136;14.942;2022-07-23T04:32:23;9.13;;;8.32;;
37445;SDS011;23307;51.136;14.942;2022-07-23T04:34:49;8.95;;;8.13;;
37445;SDS011;23307;51.136;14.942;2022-07-23T04:37:15;10.93;;;8.63;;
37445;SDS011;23307;51.136;14.942;2022-07-23T04:39:40;10.40;;;8.05;;
37445;SDS011;23307;51.136;14.942;2022-07-23T04:42:06;8.13;;;7.32;;
37445;SDS011;23307;51.136;14.942;2022-07-23T04:44:31;8.73;;;7.40;;
37445;SDS011;23307;51.136;14.942;2022-07-23T04:46:57;9.85;;;8.73;;
37445;SDS011;23307;51.136;14.942;2022-07-23T04:49:22;10.63;;;8.02;;
37445;SDS011;23307;51.136;14.942;2022-07-23T04:51:48;9.00;;;8.10;;
37445;SDS011;23307;51.136;14.942;2022-07-23T04:54:13;8.98;;;8.10;;
37445;SDS011;23307;51.136;14.942;2022-07-23T04:56:39;8.48;;;7.68;;
37445;SDS011;23307;51.136;14.942;2022-07-23T04:59:04;10.52;;;7.80;;
37445;SDS011;23307;51.136;14.942;2022-07-23T05:01:30;9.38;;;7.63;;
37445;SDS011;23307;51.136;14.942;2022-07-23T05:03:55;8.43;;;7.63;;
37445;SDS011;23307;51.136;14.942;2022-07-23T05:06:21;10.80;;;8.68;;
37445;SDS011;23307;51.136;14.942;2022-07-23T05:08:46;7.95;;;7.25;;
37445;SDS011;23307;51.136;14.942;2022-07-23T05:11:12;12.40;;;8.23;;
37445;SDS011;23307;51.136;14.942;2022-07-23T05:13:37;10.00;;;8.20;;
37445;SDS011;23307;51.136;14.942;2022-07-23T05:16:03;9.05;;;7.68;;
37445;SDS011;23307;51.136;14.942;2022-07-23T05:18:28;10.30;;;7.50;;
37445;SDS011;23307;51.136;14.942;2022-07-23T05:20:54;9.18;;;7.72;;
37445;SDS011;23307;51.136;14.942;2022-07-23T05:23:19;9.43;;;8.45;;
37445;SDS011;23307;51.136;14.942;2022-07-23T05:25:45;8.45;;;7.60;;
37445;SDS011;23307;51.136;14.942;2022-07-23T05:28:11;9.38;;;7.32;;
37445;SDS011;23307;51.136;14.942;2022-07-23T05:30:36;10.93;;;7.75;;
37445;SDS011;23307;51.136;14.942;2022-07-23T05:33:02;9.00;;;7.40;;
37445;SDS011;23307;51.136;14.942;2022-07-23T05:35:27;11.35;;;8.07;;
37445;SDS011;23307;51.136;14.942;2022-07-23T05:37:53;8.80;;;7.13;;
37445;SDS011;23307;51.136;14.942;2022-07-23T05:40:18;8.43;;;7.60;;
37445;SDS011;23307;51.136;14.942;2022-07-23T05:42:44;9.68;;;7.43;;
37445;SDS011;23307;51.136;14.942;2022-07-23T05:45:10;9.68;;;7.72;;
37445;SDS011;23307;51.136;14.942;2022-07-23T05:47:42;9.35;;;8.27;;
37445;SDS011;23307;51.136;14.942;2022-07-23T05:50:10;13.65;;;7.82;;
37445;SDS011;23307;51.136;14.942;2022-07-23T05:52:36;8.90;;;7.97;;
37445;SDS011;23307;51.136;14.942;2022-07-23T05:55:03;10.25;;;7.35;;
37445;SDS011;23307;51.136;14.942;2022-07-23T05:57:29;8.02;;;7.22;;
37445;SDS011;23307;51.136;14.942;2022-07-23T05:59:55;10.00;;;7.35;;
37445;SDS011;23307;51.136;14.942;2022-07-23T06:02:20;8.05;;;7.35;;
37445;SDS011;23307;51.136;14.942;2022-07-23T06:04:46;7.75;;;6.85;;
37445;SDS011;23307;51.136;14.942;2022-07-23T06:07:11;9.25;;;6.97;;
37445;SDS011;23307;51.136;14.942;2022-07-23T06:09:37;7.68;;;6.85;;
37445;SDS011;23307;51.136;14.942;2022-07-23T06:12:02;9.77;;;7.25;;
37445;SDS011;23307;51.136;14.942;2022-07-23T06:14:28;9.50;;;7.40;;
37445;SDS011;23307;51.136;14.942;2022-07-23T06:16:54;8.55;;;7.75;;
37445;SDS011;23307;51.136;14.942;2022-07-23T06:19:19;10.18;;;7.97;;
37445;SDS011;23307;51.136;14.942;2022-07-23T06:21:45;9.07;;;8.18;;
37445;SDS011;23307;51.136;14.942;2022-07-23T06:24:10;10.27;;;8.25;;
37445;SDS011;23307;51.136;14.942;2022-07-23T06:26:36;8.57;;;7.78;;
37445;SDS011;23307;51.136;14.942;2022-07-23T06:29:01;9.13;;;7.00;;
37445;SDS011;23307;51.136;14.942;2022-07-23T06:31:27;11.65;;;7.60;;
37445;SDS011;23307;51.136;14.942;2022-07-23T06:33:52;8.23;;;7.10;;
37445;SDS011;23307;51.136;14.942;2022-07-23T06:36:18;7.75;;;7.05;;
37445;SDS011;23307;51.136;14.942;2022-07-23T06:38:43;8.05;;;7.25;;
37445;SDS011;23307;51.136;14.942;2022-07-23T06:41:09;7.05;;;6.35;;
37445;SDS011;23307;51.136;14.942;2022-07-23T06:43:35;7.72;;;7.03;;
37445;SDS011;23307;51.136;14.942;2022-07-23T06:46:00;7.28;;;6.60;;
37445;SDS011;23307;51.136;14.942;2022-07-23T06:48:26;9.75;;;7.13;;
37445;SDS011;23307;51.136;14.942;2022-07-23T06:50:51;7.45;;;6.75;;
37445;SDS011;23307;51.136;14.942;2022-07-23T06:53:17;7.70;;;6.90;;
37445;SDS011;23307;51.136;14.942;2022-07-23T06:55:43;9.35;;;6.78;;
37445;SDS011;23307;51.136;14.942;2022-07-23T06:58:08;8.13;;;7.43;;
37445;SDS011;23307;51.136;14.942;2022-07-23T07:00:35;11.30;;;7.00;;
37445;SDS011;23307;51.136;14.942;2022-07-23T07:03:00;10.25;;;7.53;;
37445;SDS011;23307;51.136;14.942;2022-07-23T07:05:26;8.07;;;7.28;;
37445;SDS011;23307;51.136;14.942;2022-07-23T07:07:53;8.68;;;7.88;;
37445;SDS011;23307;51.136;14.942;2022-07-23T07:10:21;9.13;;;8.27;;
37445;SDS011;23307;51.136;14.942;2022-07-23T07:12:47;9.43;;;8.45;;
37445;SDS011;23307;51.136;14.942;2022-07-23T07:15:13;10.85;;;8.43;;
37445;SDS011;23307;51.136;14.942;2022-07-23T07:17:38;9.20;;;8.40;;
37445;SDS011;23307;51.136;14.942;2022-07-23T07:20:04;9.38;;;8.48;;
37445;SDS011;23307;51.136;14.942;2022-07-23T07:22:30;10.57;;;7.80;;
37445;SDS011;23307;51.136;14.942;2022-07-23T07:24:56;8.95;;;8.15;;
37445;SDS011;23307;51.136;14.942;2022-07-23T07:27:22;10.55;;;8.60;;
37445;SDS011;23307;51.136;14.942;2022-07-23T07:29:47;8.57;;;7.75;;
37445;SDS011;23307;51.136;14.942;2022-07-23T07:32:13;8.77;;;8.02;;
37445;SDS011;23307;51.136;14.942;2022-07-23T07:34:38;8.80;;;8.10;;
37445;SDS011;23307;51.136;14.942;2022-07-23T07:37:04;8.07;;;7.38;;
37445;SDS011;23307;51.136;14.942;2022-07-23T07:39:29;9.65;;;8.38;;
37445;SDS011;23307;51.136;14.942;2022-07-23T07:41:55;8.85;;;8.05;;
37445;SDS011;23307;51.136;14.942;2022-07-23T07:44:21;9.25;;;8.35;;
37445;SDS011;23307;51.136;14.942;2022-07-23T07:46:47;8.30;;;7.47;;
37445;SDS011;23307;51.136;14.942;2022-07-23T07:49:12;10.25;;;7.97;;
37445;SDS011;23307;51.136;14.942;2022-07-23T07:51:38;9.15;;;8.35;;
37445;SDS011;23307;51.136;14.942;2022-07-23T07:54:03;9.13;;;8.32;;
37445;SDS011;23307;51.136;14.942;2022-07-23T07:56:29;9.38;;;8.38;;
37445;SDS011;23307;51.136;14.942;2022-07-23T07:58:55;10.57;;;8.35;;
37445;SDS011;23307;51.136;14.942;2022-07-23T08:01:20;9.75;;;8.85;;
37445;SDS011;23307;51.136;14.942;2022-07-23T08:03:46;9.68;;;8.70;;
37445;SDS011;23307;51.136;14.942;2022-07-23T08:06:11;9.77;;;8.80;;
37445;SDS011;23307;51.136;14.942;2022-07-23T08:08:37;8.95;;;8.10;;
37445;SDS011;23307;51.136;14.942;2022-07-23T08:11:03;8.75;;;8.05;;
37445;SDS011;23307;51.136;14.942;2022-07-23T08:13:28;9.27;;;8.35;;
37445;SDS011;23307;51.136;14.942;2022-07-23T08:15:54;10.70;;;8.38;;
37445;SDS011;23307;51.136;14.942;2022-07-23T08:18:19;8.25;;;7.45;;
37445;SDS011;23307;51.136;14.942;2022-07-23T08:20:45;9.73;;;8.65;;
37445;SDS011;23307;51.136;14.942;2022-07-23T08:23:10;9.60;;;8.70;;
37445;SDS011;23307;51.136;14.942;2022-07-23T08:25:37;9.90;;;8.57;;
37445;SDS011;23307;51.136;14.942;2022-07-23T08:28:05;11.82;;;9.10;;
37445;SDS011;23307;51.136;14.942;2022-07-23T08:30:33;10.27;;;8.77;;
37445;SDS011;23307;51.136;14.942;2022-07-23T08:33:00;10.90;;;8.73;;
37445;SDS011;23307;51.136;14.942;2022-07-23T08:35:29;9.82;;;8.80;;
37445;SDS011;23307;51.136;14.942;2022-07-23T08:37:57;9.27;;;8.38;;
37445;SDS011;23307;51.136;14.942;2022-07-23T08:40:24;19.27;;;8.38;;
37445;SDS011;23307;51.136;14.942;2022-07-23T08:42:51;9.88;;;9.00;;
37445;SDS011;23307;51.136;14.942;2022-07-23T08:45:18;11.13;;;9.57;;
37445;SDS011;23307;51.136;14.942;2022-07-23T08:47:45;9.60;;;8.68;;
37445;SDS011;23307;51.136;14.942;2022-07-23T08:50:17;9.35;;;8.55;;
37445;SDS011;23307;51.136;14.942;2022-07-23T08:52:43;8.95;;;8.10;;
37445;SDS011;23307;51.136;14.942;2022-07-23T08:55:09;9.93;;;9.02;;
37445;SDS011;23307;51.136;14.942;2022-07-23T08:57:35;9.32;;;8.43;;
37445;SDS011;23307;51.136;14.942;2022-07-23T09:00:00;10.02;;;9.13;;
37445;SDS011;23307;51.136;14.942;2022-07-23T09:02:26;10.13;;;9.10;;
37445;SDS011;23307;51.136;14.942;2022-07-23T09:04:52;9.32;;;8.45;;
37445;SDS011;23307;51.136;14.942;2022-07-23T09:07:17;9.27;;;8.48;;
37445;SDS011;23307;51.136;14.942;2022-07-23T09:09:43;9.20;;;8.25;;
37445;SDS011;23307;51.136;14.942;2022-07-23T09:12:10;9.70;;;8.80;;
37445;SDS011;23307;51.136;14.942;2022-07-23T09:14:37;9.20;;;8.25;;
37445;SDS011;23307;51.136;14.942;2022-07-23T09:17:09;9.13;;;8.20;;
37445;SDS011;23307;51.136;14.942;2022-07-23T09:19:40;8.60;;;7.90;;
37445;SDS011;23307;51.136;14.942;2022-07-23T09:22:16;9.32;;;8.52;;
37445;SDS011;23307;51.136;14.942;2022-07-23T09:27:48;10.32;;;8.63;;
37445;SDS011;23307;51.136;14.942;2022-07-23T09:30:14;8.98;;;8.27;;
37445;SDS011;23307;51.136;14.942;2022-07-23T09:32:40;8.52;;;7.63;;
37445;SDS011;23307;51.136;14.942;2022-07-23T09:35:06;8.43;;;7.80;;
37445;SDS011;23307;51.136;14.942;2022-07-23T09:37:32;8.73;;;8.02;;
37445;SDS011;23307;51.136;14.942;2022-07-23T09:40:05;8.77;;;7.95;;
37445;SDS011;23307;51.136;14.942;2022-07-23T09:42:36;9.65;;;8.77;;
37445;SDS011;23307;51.136;14.942;2022-07-23T09:45:02;9.05;;;8.27;;
37445;SDS011;23307;51.136;14.942;2022-07-23T09:47:29;8.30;;;7.43;;
37445;SDS011;23307;51.136;14.942;2022-07-23T09:50:03;9.18;;;8.13;;
37445;SDS011;23307;51.136;14.942;2022-07-23T09:52:34;8.63;;;7.93;;
37445;SDS011;23307;51.136;14.942;2022-07-23T09:55:12;8.98;;;8.15;;
37445;SDS011;23307;51.136;14.942;2022-07-23T09:57:38;7.55;;;6.95;;
37445;SDS011;23307;51.136;14.942;2022-07-23T10:00:07;10.50;;;7.30;;
37445;SDS011;23307;51.136;14.942;2022-07-23T10:02:35;8.38;;;7.50;;
37445;SDS011;23307;51.136;14.942;2022-07-23T10:05:01;8.07;;;7.28;;
37445;SDS011;23307;51.136;14.942;2022-07-23T10:07:27;7.05;;;6.45;;
37445;SDS011;23307;51.136;14.942;2022-07-23T10:09:58;7.60;;;6.90;;
37445;SDS011;23307;51.136;14.942;2022-07-23T10:12:24;7.55;;;6.85;;
37445;SDS011;23307;51.136;14.942;2022-07-23T10:15:09;7.03;;;6.32;;
37445;SDS011;23307;51.136;14.942;2022-07-23T10:17:35;7.07;;;6.38;;
37445;SDS011;23307;51.136;14.942;2022-07-23T10:20:01;6.88;;;6.30;;
37445;SDS011;23307;51.136;14.942;2022-07-23T10:22:39;9.15;;;6.13;;
37445;SDS011;23307;51.136;14.942;2022-07-23T10:31:25;7.82;;;7.07;;
37445;SDS011;23307;51.136;14.942;2022-07-23T10:34:18;7.25;;;6.55;;
37445;SDS011;23307;51.136;14.942;2022-07-23T10:37:07;7.10;;;6.40;;
37445;SDS011;23307;51.136;14.942;2022-07-23T10:42:44;7.15;;;6.45;;
37445;SDS011;23307;51.136;14.942;2022-07-23T10:50:39;8.55;;;6.30;;
37445;SDS011;23307;51.136;14.942;2022-07-23T10:57:57;7.10;;;6.40;;
37445;SDS011;23307;51.136;14.942;2022-07-23T11:00:24;8.18;;;6.78;;
37445;SDS011;23307;51.136;14.942;2022-07-23T11:02:56;8.13;;;6.70;;
37445;SDS011;23307;51.136;14.942;2022-07-23T11:05:27;8.05;;;6.57;;
37445;SDS011;23307;51.136;14.942;2022-07-23T11:23:57;8.23;;;5.95;;
37445;SDS011;23307;51.136;14.942;2022-07-23T11:32:02;8.68;;;6.10;;
37445;SDS011;23307;51.136;14.942;2022-07-23T11:37:05;6.35;;;5.80;;
37445;SDS011;23307;51.136;14.942;2022-07-23T11:39:34;5.93;;;5.43;;
37445;SDS011;23307;51.136;14.942;2022-07-23T11:42:00;5.93;;;5.10;;
37445;SDS011;23307;51.136;14.942;2022-07-23T11:44:33;5.68;;;5.07;;
37445;SDS011;23307;51.136;14.942;2022-07-23T11:47:02;6.10;;;5.60;;
37445;SDS011;23307;51.136;14.942;2022-07-23T11:49:29;5.72;;;5.22;;
37445;SDS011;23307;51.136;14.942;2022-07-23T11:54:35;6.25;;;5.65;;
37445;SDS011;23307;51.136;14.942;2022-07-23T11:57:15;5.80;;;5.20;;
37445;SDS011;23307;51.136;14.942;2022-07-23T11:59:41;6.13;;;5.53;;
37445;SDS011;23307;51.136;14.942;2022-07-23T12:02:08;7.20;;;5.65;;
37445;SDS011;23307;51.136;14.942;2022-07-23T12:04:38;8.07;;;5.43;;
37445;SDS011;23307;51.136;14.942;2022-07-23T12:07:21;5.88;;;5.10;;
37445;SDS011;23307;51.136;14.942;2022-07-23T12:09:52;7.65;;;5.65;;
37445;SDS011;23307;51.136;14.942;2022-07-23T12:12:18;6.97;;;4.57;;
37445;SDS011;23307;51.136;14.942;2022-07-23T12:14:57;5.32;;;4.82;;
37445;SDS011;23307;51.136;14.942;2022-07-23T12:17:33;5.00;;;4.60;;
37445;SDS011;23307;51.136;14.942;2022-07-23T12:20:01;5.28;;;4.78;;
37445;SDS011;23307;51.136;14.942;2022-07-23T12:22:48;6.68;;;5.18;;
37445;SDS011;23307;51.136;14.942;2022-07-23T12:25:23;7.97;;;5.05;;
37445;SDS011;23307;51.136;14.942;2022-07-23T12:28:10;5.50;;;4.90;;
37445;SDS011;23307;51.136;14.942;2022-07-23T12:30:38;6.50;;;4.60;;
37445;SDS011;23307;51.136;14.942;2022-07-23T12:33:10;5.10;;;4.65;;
37445;SDS011;23307;51.136;14.942;2022-07-23T12:35:38;7.15;;;4.68;;
37445;SDS011;23307;51.136;14.942;2022-07-23T12:38:08;6.30;;;4.97;;
37445;SDS011;23307;51.136;14.942;2022-07-23T12:40:48;4.93;;;4.43;;
37445;SDS011;23307;51.136;14.942;2022-07-23T12:43:44;5.15;;;4.65;;
37445;SDS011;23307;51.136;14.942;2022-07-23T12:46:14;4.60;;;4.20;;
37445;SDS011;23307;51.136;14.942;2022-07-23T12:51:15;7.43;;;4.25;;
37445;SDS011;23307;51.136;14.942;2022-07-23T12:53:42;5.40;;;4.90;;
37445;SDS011;23307;51.136;14.942;2022-07-23T12:56:26;5.35;;;4.85;;
37445;SDS011;23307;51.136;14.942;2022-07-23T12:58:55;5.80;;;5.03;;
37445;SDS011;23307;51.136;14.942;2022-07-23T13:01:33;5.20;;;4.70;;
37445;SDS011;23307;51.136;14.942;2022-07-23T13:04:10;5.57;;;4.95;;
37445;SDS011;23307;51.136;14.942;2022-07-23T13:06:49;6.93;;;5.10;;
37445;SDS011;23307;51.136;14.942;2022-07-23T13:09:15;5.13;;;4.72;;
37445;SDS011;23307;51.136;14.942;2022-07-23T13:11:44;6.10;;;4.60;;
37445;SDS011;23307;51.136;14.942;2022-07-23T13:14:10;5.47;;;4.95;;
37445;SDS011;23307;51.136;14.942;2022-07-23T13:16:37;4.97;;;4.57;;
37445;SDS011;23307;51.136;14.942;2022-07-23T13:19:03;7.05;;;5.00;;
37445;SDS011;23307;51.136;14.942;2022-07-23T13:21:28;5.13;;;4.20;;
37445;SDS011;23307;51.136;14.942;2022-07-23T13:23:54;4.72;;;4.32;;
37445;SDS011;23307;51.136;14.942;2022-07-23T13:26:21;5.38;;;4.97;;
37445;SDS011;23307;51.136;14.942;2022-07-23T13:28:46;5.65;;;5.15;;
37445;SDS011;23307;51.136;14.942;2022-07-23T13:31:12;6.30;;;5.20;;
37445;SDS011;23307;51.136;14.942;2022-07-23T13:33:38;5.38;;;4.88;;
37445;SDS011;23307;51.136;14.942;2022-07-23T13:36:04;5.90;;;5.40;;
37445;SDS011;23307;51.136;14.942;2022-07-23T13:38:30;5.82;;;5.20;;
37445;SDS011;23307;51.136;14.942;2022-07-23T13:40:55;5.43;;;5.03;;
37445;SDS011;23307;51.136;14.942;2022-07-23T13:43:22;6.90;;;5.82;;
37445;SDS011;23307;51.136;14.942;2022-07-23T13:45:48;6.15;;;5.57;;
37445;SDS011;23307;51.136;14.942;2022-07-23T13:48:15;9.20;;;5.07;;
37445;SDS011;23307;51.136;14.942;2022-07-23T13:50:42;6.20;;;5.00;;
37445;SDS011;23307;51.136;14.942;2022-07-23T13:53:09;6.50;;;5.50;;
37445;SDS011;23307;51.136;14.942;2022-07-23T13:55:37;5.68;;;5.07;;
37445;SDS011;23307;51.136;14.942;2022-07-23T13:58:03;6.57;;;5.35;;
37445;SDS011;23307;51.136;14.942;2022-07-23T14:00:31;5.53;;;5.07;;
37445;SDS011;23307;51.136;14.942;2022-07-23T14:02:57;7.00;;;5.97;;
37445;SDS011;23307;51.136;14.942;2022-07-23T14:05:23;6.10;;;5.60;;
37445;SDS011;23307;51.136;14.942;2022-07-23T14:07:49;6.05;;;5.45;;
37445;SDS011;23307;51.136;14.942;2022-07-23T14:10:16;5.53;;;5.13;;
37445;SDS011;23307;51.136;14.942;2022-07-23T14:12:44;7.32;;;5.57;;
37445;SDS011;23307;51.136;14.942;2022-07-23T14:15:11;6.30;;;5.70;;
37445;SDS011;23307;51.136;14.942;2022-07-23T14:17:37;7.15;;;5.78;;
37445;SDS011;23307;51.136;14.942;2022-07-23T14:20:04;6.65;;;5.53;;
37445;SDS011;23307;51.136;14.942;2022-07-23T14:22:31;7.30;;;5.60;;
37445;SDS011;23307;51.136;14.942;2022-07-23T14:24:57;6.00;;;5.50;;
37445;SDS011;23307;51.136;14.942;2022-07-23T14:27:23;6.40;;;5.80;;
37445;SDS011;23307;51.136;14.942;2022-07-23T14:29:49;9.07;;;5.65;;
37445;SDS011;23307;51.136;14.942;2022-07-23T14:32:15;6.28;;;5.78;;
37445;SDS011;23307;51.136;14.942;2022-07-23T14:34:41;6.20;;;5.80;;
37445;SDS011;23307;51.136;14.942;2022-07-23T14:37:06;6.07;;;5.22;;
37445;SDS011;23307;51.136;14.942;2022-07-23T14:39:32;5.80;;;5.40;;
37445;SDS011;23307;51.136;14.942;2022-07-23T14:41:57;6.22;;;5.63;;
37445;SDS011;23307;51.136;14.942;2022-07-23T14:44:23;6.72;;;5.97;;
37445;SDS011;23307;51.136;14.942;2022-07-23T14:46:49;5.95;;;5.43;;
37445;SDS011;23307;51.136;14.942;2022-07-23T14:49:14;7.32;;;6.20;;
37445;SDS011;23307;51.136;14.942;2022-07-23T14:51:40;6.60;;;6.00;;
37445;SDS011;23307;51.136;14.942;2022-07-23T14:54:07;8.43;;;6.13;;
37445;SDS011;23307;51.136;14.942;2022-07-23T14:56:33;6.88;;;6.05;;
37445;SDS011;23307;51.136;14.942;2022-07-23T14:59:00;6.60;;;6.07;;
37445;SDS011;23307;51.136;14.942;2022-07-23T15:01:26;6.40;;;5.90;;
37445;SDS011;23307;51.136;14.942;2022-07-23T15:03:52;6.72;;;6.10;;
37445;SDS011;23307;51.136;14.942;2022-07-23T15:06:17;6.50;;;5.80;;
37445;SDS011;23307;51.136;14.942;2022-07-23T15:08:43;6.68;;;5.93;;
37445;SDS011;23307;51.136;14.942;2022-07-23T15:11:08;6.25;;;5.65;;
37445;SDS011;23307;51.136;14.942;2022-07-23T15:13:35;5.75;;;5.25;;
37445;SDS011;23307;51.136;14.942;2022-07-23T15:16:01;5.30;;;4.80;;
37445;SDS011;23307;51.136;14.942;2022-07-23T15:18:27;5.85;;;5.35;;
37445;SDS011;23307;51.136;14.942;2022-07-23T15:20:53;5.82;;;5.30;;
37445;SDS011;23307;51.136;14.942;2022-07-23T15:23:18;4.90;;;4.50;;
37445;SDS011;23307;51.136;14.942;2022-07-23T15:25:44;5.55;;;4.80;;